createdAt,value
2022-09-06T00:00:26.722Z,14.38
2022-09-06T00:02:36.542Z,6.93
2022-09-06T00:04:39.215Z,7.20
2022-09-06T00:06:41.840Z,6.82
2022-09-06T00:08:45.978Z,7.70
2022-09-06T00:10:48.645Z,7.13
2022-09-06T00:12:51.276Z,8.13
2022-09-06T00:14:54.438Z,7.32
2022-09-06T00:16:57.064Z,8.35
2022-09-06T00:18:59.764Z,8.82
2022-09-06T00:21:03.865Z,10.40
2022-09-06T00:23:06.462Z,4.95
2022-09-06T00:25:09.575Z,5.68
2022-09-06T00:27:13.168Z,7.70
2022-09-06T00:29:15.827Z,8.32
2022-09-06T00:31:21.635Z,7.47
2022-09-06T00:33:25.003Z,8.20
2022-09-06T00:35:28.715Z,9.88
2022-09-06T00:37:31.367Z,10.00
2022-09-06T00:39:33.959Z,6.75
2022-09-06T00:41:36.798Z,5.82
2022-09-06T00:43:40.420Z,7.68
2022-09-06T00:45:43.122Z,6.03
2022-09-06T00:47:46.379Z,7.82
2022-09-06T00:49:54.047Z,7.85
2022-09-06T00:52:02.172Z,5.65
2022-09-06T00:54:06.788Z,6.13
2022-09-06T00:56:09.620Z,6.53
2022-09-06T00:58:13.182Z,14.20
2022-09-06T01:00:16.475Z,5.70
2022-09-06T01:02:20.265Z,7.00
2022-09-06T01:04:24.312Z,5.53
2022-09-06T01:06:32.646Z,7.43
2022-09-06T01:08:44.004Z,6.97
2022-09-06T01:11:16.352Z,7.22
2022-09-06T01:13:29.012Z,9.25
2022-09-06T01:15:56.253Z,6.97
2022-09-06T01:18:22.213Z,8.57
2022-09-06T01:20:33.907Z,8.07
2022-09-06T01:23:06.967Z,6.57
2022-09-06T01:25:28.190Z,9.88
2022-09-06T01:27:58.958Z,9.77
2022-09-06T01:30:10.435Z,7.03
2022-09-06T01:32:26.607Z,9.07
2022-09-06T01:34:45.131Z,11.05
2022-09-06T01:37:09.367Z,6.05
2022-09-06T01:39:23.503Z,7.97
2022-09-06T01:41:26.539Z,8.60
2022-09-06T01:43:37.494Z,5.85
2022-09-06T01:46:02.160Z,6.70
2022-09-06T01:48:21.201Z,5.45
2022-09-06T01:51:00.595Z,8.20
2022-09-06T01:53:21.432Z,9.27
2022-09-06T01:55:49.953Z,6.32
2022-09-06T01:57:58.968Z,8.15
2022-09-06T02:00:10.528Z,6.22
2022-09-06T02:02:48.792Z,10.45
2022-09-06T02:04:58.581Z,6.50
2022-09-06T02:07:08.982Z,5.93
2022-09-06T02:09:23.603Z,5.45
2022-09-06T02:11:29.567Z,6.32
2022-09-06T02:14:01.772Z,7.28
2022-09-06T02:16:08.740Z,4.70
2022-09-06T02:18:19.998Z,6.22
2022-09-06T02:20:31.135Z,6.55
2022-09-06T02:22:42.336Z,5.68
2022-09-06T02:24:47.761Z,6.88
2022-09-06T02:26:51.296Z,6.57
2022-09-06T02:28:54.442Z,6.57
2022-09-06T02:31:02.895Z,6.50
2022-09-06T02:33:11.426Z,8.68
2022-09-06T02:35:16.852Z,10.85
2022-09-06T02:37:19.894Z,5.63
2022-09-06T02:39:22.921Z,7.00
2022-09-06T02:41:26.690Z,7.05
2022-09-06T02:43:29.661Z,7.45
2022-09-06T02:45:32.735Z,5.85
2022-09-06T02:47:35.367Z,7.45
2022-09-06T02:49:38.083Z,7.72
2022-09-06T02:51:40.964Z,10.02
2022-09-06T02:53:43.970Z,8.35
2022-09-06T02:55:48.962Z,6.85
2022-09-06T02:57:52.281Z,7.90
2022-09-06T02:59:54.894Z,8.05
2022-09-06T03:01:57.823Z,8.60
2022-09-06T03:04:01.694Z,10.35
2022-09-06T03:06:04.460Z,9.23
2022-09-06T03:08:07.240Z,7.97
2022-09-06T03:10:10.103Z,9.90
2022-09-06T03:12:13.210Z,7.82
2022-09-06T03:14:17.253Z,6.88
2022-09-06T03:16:21.317Z,6.53
2022-09-06T03:18:25.239Z,6.90
2022-09-06T03:20:27.861Z,6.57
2022-09-06T03:22:31.029Z,5.65
2022-09-06T03:24:33.826Z,9.43
2022-09-06T03:26:36.454Z,6.05
2022-09-06T03:28:39.941Z,6.57
2022-09-06T03:30:45.515Z,6.40
2022-09-06T03:32:48.203Z,9.68
2022-09-06T03:34:50.861Z,7.13
2022-09-06T03:36:53.458Z,5.57
2022-09-06T03:38:56.062Z,5.65
2022-09-06T03:40:59.072Z,5.03
2022-09-06T03:43:01.662Z,5.18
2022-09-06T03:45:05.880Z,5.07
2022-09-06T03:47:08.751Z,5.00
2022-09-06T03:49:11.319Z,7.22
2022-09-06T03:51:13.933Z,5.75
2022-09-06T03:53:18.785Z,7.00
2022-09-06T03:55:21.383Z,6.13
2022-09-06T03:57:24.015Z,6.88
2022-09-06T03:59:26.745Z,4.45
2022-09-06T04:01:29.584Z,7.75
2022-09-06T04:03:33.099Z,5.20
2022-09-06T04:05:36.286Z,4.68
2022-09-06T04:07:39.226Z,4.63
2022-09-06T04:09:41.881Z,4.20
2022-09-06T04:11:45.197Z,4.22
2022-09-06T04:13:48.302Z,4.47
2022-09-06T04:15:51.311Z,5.30
2022-09-06T04:17:54.049Z,4.82
2022-09-06T04:19:56.755Z,4.75
2022-09-06T04:21:59.667Z,5.20
2022-09-06T04:24:02.952Z,4.30
2022-09-06T04:26:05.716Z,4.70
2022-09-06T04:28:08.399Z,3.05
2022-09-06T04:30:11.273Z,4.57
2022-09-06T04:32:14.084Z,3.42
2022-09-06T04:34:16.768Z,3.40
2022-09-06T04:36:19.490Z,5.28
2022-09-06T04:38:22.132Z,5.18
2022-09-06T04:40:24.871Z,5.20
2022-09-06T04:42:27.589Z,7.75
2022-09-06T04:44:30.327Z,4.50
2022-09-06T04:46:33.087Z,3.47
2022-09-06T04:48:35.753Z,4.88
2022-09-06T04:50:39.328Z,6.40
2022-09-06T04:52:41.855Z,3.38
2022-09-06T04:54:44.615Z,5.43
2022-09-06T04:56:47.393Z,3.47
2022-09-06T04:58:50.949Z,7.18
2022-09-06T05:00:54.054Z,3.78
2022-09-06T05:02:56.659Z,9.40
2022-09-06T05:04:59.321Z,4.68
2022-09-06T05:07:08.850Z,4.43
2022-09-06T05:09:11.728Z,4.13
2022-09-06T05:11:14.451Z,3.50
2022-09-06T05:13:17.051Z,5.05
2022-09-06T05:15:20.904Z,5.20
2022-09-06T05:17:23.719Z,3.58
2022-09-06T05:19:26.548Z,2.80
2022-09-06T05:21:29.343Z,6.32
2022-09-06T05:23:32.008Z,6.63
2022-09-06T05:25:34.608Z,5.45
2022-09-06T05:27:37.238Z,3.83
2022-09-06T05:29:39.984Z,4.90
2022-09-06T05:31:42.904Z,7.18
2022-09-06T05:33:45.503Z,5.85
2022-09-06T05:35:49.327Z,4.72
2022-09-06T05:37:51.883Z,5.78
2022-09-06T05:39:54.614Z,5.28
2022-09-06T05:41:57.667Z,6.03
2022-09-06T05:44:00.404Z,5.50
2022-09-06T05:46:03.653Z,5.80
2022-09-06T05:48:06.693Z,3.90
2022-09-06T05:50:10.251Z,4.45
2022-09-06T05:52:13.290Z,7.25
2022-09-06T05:54:15.966Z,5.97
2022-09-06T05:56:19.264Z,4.75
2022-09-06T05:58:21.921Z,4.53
2022-09-06T06:00:25.570Z,6.15
2022-09-06T06:02:28.244Z,6.75
2022-09-06T06:04:30.915Z,5.10
2022-09-06T06:06:34.917Z,5.03
2022-09-06T06:08:37.615Z,4.38
2022-09-06T06:10:42.919Z,4.88
2022-09-06T06:12:45.646Z,6.95
2022-09-06T06:14:48.759Z,8.18
2022-09-06T06:16:52.136Z,4.32
2022-09-06T06:18:55.100Z,6.65
2022-09-06T06:21:12.838Z,7.00
2022-09-06T06:23:16.239Z,8.13
2022-09-06T06:25:23.158Z,9.70
2022-09-06T06:27:25.742Z,9.10
2022-09-06T06:29:28.323Z,9.23
2022-09-06T06:31:32.609Z,9.45
2022-09-06T06:33:36.547Z,16.25
2022-09-06T06:35:40.221Z,11.73
2022-09-06T06:37:42.796Z,15.75
2022-09-06T06:39:45.552Z,8.48
2022-09-06T06:41:50.851Z,8.90
2022-09-06T06:43:58.853Z,7.18
2022-09-06T06:46:01.567Z,10.85
2022-09-06T06:48:04.253Z,19.13
2022-09-06T06:50:07.114Z,7.82
2022-09-06T06:52:09.758Z,11.80
2022-09-06T06:54:12.639Z,8.02
2022-09-06T06:56:19.337Z,3.63
2022-09-06T06:58:22.013Z,4.70
2022-09-06T07:00:28.137Z,10.00
2022-09-06T07:02:30.980Z,11.20
2022-09-06T07:04:33.692Z,5.60
2022-09-06T07:09:18.400Z,9.43
2022-09-06T07:11:24.308Z,6.10
2022-09-06T07:13:27.722Z,7.82
2022-09-06T07:15:30.654Z,6.43
2022-09-06T07:17:34.853Z,8.48
2022-09-06T07:22:04.373Z,5.35
2022-09-06T07:24:09.367Z,3.50
2022-09-06T07:26:19.581Z,4.35
2022-09-06T07:28:24.027Z,5.55
2022-09-06T07:30:26.800Z,4.13
2022-09-06T07:32:31.776Z,2.92
2022-09-06T07:34:38.425Z,2.00
2022-09-06T07:36:41.063Z,5.40
2022-09-06T07:38:43.757Z,5.85
2022-09-06T07:40:54.451Z,3.92
2022-09-06T07:43:00.617Z,2.70
2022-09-06T07:45:03.221Z,1.55
2022-09-06T07:49:34.757Z,3.03
2022-09-06T07:51:37.829Z,1.23
2022-09-06T07:53:42.491Z,1.08
2022-09-06T07:55:45.215Z,2.53
2022-09-06T07:57:47.897Z,3.35
2022-09-06T07:59:51.284Z,4.07
2022-09-06T08:01:54.006Z,5.35
2022-09-06T08:04:02.950Z,1.45
2022-09-06T08:10:36.054Z,6.20
2022-09-06T08:12:38.716Z,3.33
2022-09-06T08:14:41.275Z,1.42
2022-09-06T08:16:43.991Z,2.20
2022-09-06T08:18:51.760Z,0.60
2022-09-06T08:20:54.430Z,1.15
2022-09-06T08:22:57.521Z,3.05
2022-09-06T08:25:00.347Z,0.90
2022-09-06T08:27:03.950Z,0.90
2022-09-06T08:29:09.327Z,1.60
2022-09-06T08:31:14.383Z,2.25
2022-09-06T08:33:20.425Z,3.63
2022-09-06T08:35:23.059Z,3.60
2022-09-06T08:37:25.666Z,2.97
2022-09-06T08:39:28.401Z,4.55
2022-09-06T08:42:07.579Z,1.63
2022-09-06T08:46:58.452Z,1.67
2022-09-06T08:49:01.337Z,2.28
2022-09-06T08:51:06.938Z,2.28
2022-09-06T08:53:18.288Z,3.97
2022-09-06T08:55:33.639Z,5.10
2022-09-06T08:58:01.442Z,3.15
2022-09-06T09:00:11.803Z,2.00
2022-09-06T09:02:21.061Z,2.45
2022-09-06T09:04:26.943Z,1.52
2022-09-06T09:06:33.065Z,2.55
2022-09-06T09:08:53.468Z,4.50
2022-09-06T09:11:08.504Z,11.68
2022-09-06T09:13:29.458Z,3.97
2022-09-06T09:15:33.585Z,2.40
2022-09-06T09:17:39.501Z,2.38
2022-09-06T09:19:42.996Z,3.45
2022-09-06T09:21:46.516Z,0.82
2022-09-06T09:23:55.631Z,1.13
2022-09-06T09:26:06.358Z,1.30
2022-09-06T09:28:17.902Z,1.98
2022-09-06T09:32:51.792Z,2.20
2022-09-06T09:34:54.592Z,2.22
2022-09-06T09:39:51.011Z,2.25
2022-09-06T09:41:55.590Z,1.27
2022-09-06T09:44:05.240Z,2.65
2022-09-06T09:46:23.089Z,1.20
2022-09-06T09:48:27.934Z,2.80
2022-09-06T09:50:35.405Z,1.77
2022-09-06T09:52:44.049Z,3.13
2022-09-06T09:54:48.011Z,4.38
2022-09-06T09:56:55.804Z,3.42
2022-09-06T09:58:59.219Z,2.53
2022-09-06T10:01:23.169Z,2.75
2022-09-06T10:05:32.028Z,1.75
2022-09-06T10:07:35.613Z,1.15
2022-09-06T10:09:41.762Z,0.70
2022-09-06T10:11:59.839Z,0.55
2022-09-06T10:14:29.837Z,1.05
2022-09-06T10:16:47.404Z,0.63
2022-09-06T10:18:53.087Z,2.15
2022-09-06T10:21:03.356Z,1.42
2022-09-06T10:23:11.259Z,0.73
2022-09-06T10:25:20.185Z,0.82
2022-09-06T10:27:29.154Z,1.08
2022-09-06T10:30:05.447Z,3.72
2022-09-06T10:32:13.892Z,2.15
2022-09-06T10:34:24.625Z,2.65
2022-09-06T10:36:40.385Z,2.40
2022-09-06T10:39:03.770Z,1.83
2022-09-06T10:41:25.663Z,4.55
2022-09-06T10:43:36.772Z,2.63
2022-09-06T10:45:47.344Z,0.60
2022-09-06T10:48:14.927Z,1.27
2022-09-06T10:50:18.259Z,0.77
2022-09-06T10:52:32.863Z,0.30
2022-09-06T10:54:41.163Z,5.05
2022-09-06T10:56:52.694Z,0.75
2022-09-06T11:01:44.599Z,1.60
2022-09-06T11:03:58.540Z,0.68
2022-09-06T11:06:09.431Z,1.50
2022-09-06T11:10:45.933Z,0.75
2022-09-06T11:12:56.116Z,0.25
2022-09-06T11:15:05.393Z,1.45
2022-09-06T11:17:14.201Z,0.60
2022-09-06T11:19:26.716Z,0.30
2022-09-06T11:22:10.444Z,0.20
2022-09-06T11:24:30.166Z,0.93
2022-09-06T11:27:11.466Z,0.30
2022-09-06T11:29:26.973Z,0.75
2022-09-06T11:34:26.905Z,2.13
2022-09-06T11:36:38.700Z,0.80
2022-09-06T11:41:06.341Z,0.40
2022-09-06T11:43:35.337Z,0.98
2022-09-06T11:45:52.166Z,0.40
2022-09-06T11:47:56.052Z,1.65
2022-09-06T11:49:58.744Z,1.92
2022-09-06T11:52:01.758Z,1.02
2022-09-06T11:54:28.553Z,2.15
2022-09-06T11:56:36.976Z,0.60
2022-09-06T11:58:42.507Z,3.80
2022-09-06T12:00:47.137Z,6.18
2022-09-06T12:02:51.666Z,6.95
2022-09-06T12:05:07.320Z,8.25
2022-09-06T12:07:12.883Z,16.58
2022-09-06T12:09:32.596Z,8.23
2022-09-06T12:11:41.978Z,1.13
2022-09-06T12:13:56.798Z,1.08
2022-09-06T12:16:00.259Z,0.17
2022-09-06T12:18:03.070Z,0.73
2022-09-06T12:20:09.753Z,0.57
2022-09-06T12:22:31.342Z,0.70
2022-09-06T12:24:34.054Z,1.65
2022-09-06T12:26:55.816Z,0.77
2022-09-06T12:31:02.256Z,2.78
2022-09-06T12:33:25.243Z,0.50
2022-09-06T12:37:59.566Z,0.30
2022-09-06T12:40:02.388Z,3.78
2022-09-06T12:42:11.399Z,1.70
2022-09-06T12:44:16.094Z,1.55
2022-09-06T12:46:19.402Z,0.63
2022-09-06T12:48:31.073Z,0.77
2022-09-06T12:52:48.985Z,1.15
2022-09-06T12:54:51.622Z,1.00
2022-09-06T12:57:13.522Z,1.17
2022-09-06T13:01:31.552Z,0.68
2022-09-06T13:03:54.176Z,0.30
2022-09-06T13:05:58.401Z,0.20
2022-09-06T13:08:03.922Z,1.92
2022-09-06T13:10:07.035Z,3.50
2022-09-06T13:12:33.998Z,0.80
2022-09-06T13:14:37.286Z,1.23
2022-09-06T13:16:48.966Z,1.00
2022-09-06T13:21:08.396Z,0.40
2022-09-06T13:23:13.413Z,2.70
2022-09-06T13:25:26.779Z,1.58
2022-09-06T13:27:36.879Z,1.35
2022-09-06T13:29:39.671Z,1.02
2022-09-06T13:31:47.098Z,3.90
2022-09-06T13:33:57.356Z,1.23
2022-09-06T13:36:21.482Z,1.52
2022-09-06T13:38:32.597Z,0.98
2022-09-06T13:41:07.081Z,2.15
2022-09-06T13:43:12.118Z,4.65
2022-09-06T13:45:27.027Z,2.20
2022-09-06T13:47:30.176Z,1.40
2022-09-06T13:49:34.222Z,1.45
2022-09-06T13:51:39.458Z,0.90
2022-09-06T13:53:42.082Z,1.30
2022-09-06T13:55:44.871Z,1.85
2022-09-06T13:57:47.590Z,2.95
2022-09-06T13:59:50.385Z,2.97
2022-09-06T14:02:16.124Z,2.70
2022-09-06T14:04:21.717Z,3.85
2022-09-06T14:06:24.476Z,1.58
2022-09-06T14:08:43.794Z,1.30
2022-09-06T14:10:52.646Z,1.02
2022-09-06T14:12:55.346Z,1.80
2022-09-06T14:14:58.215Z,0.90
2022-09-06T14:17:01.467Z,1.92
2022-09-06T14:19:04.908Z,0.77
2022-09-06T14:21:07.920Z,1.10
2022-09-06T14:23:10.618Z,0.45
2022-09-06T14:25:13.739Z,0.20
2022-09-06T14:27:16.464Z,0.47
2022-09-06T14:29:19.255Z,1.52
2022-09-06T14:31:27.317Z,1.17
2022-09-06T14:33:31.541Z,0.98
2022-09-06T14:35:34.642Z,1.95
2022-09-06T14:37:37.958Z,0.88
2022-09-06T14:39:40.644Z,1.27
2022-09-06T14:41:43.388Z,1.80
2022-09-06T14:43:52.277Z,0.65
2022-09-06T14:45:55.037Z,0.70
2022-09-06T14:47:57.704Z,0.65
2022-09-06T14:50:01.134Z,1.83
2022-09-06T14:52:04.183Z,1.02
2022-09-06T14:54:10.582Z,0.85
2022-09-06T14:56:13.519Z,1.05
2022-09-06T14:58:16.181Z,5.85
2022-09-06T15:00:19.548Z,1.33
2022-09-06T15:02:22.308Z,1.77
2022-09-06T15:04:26.492Z,2.55
2022-09-06T15:06:31.265Z,1.90
2022-09-06T15:08:34.103Z,0.88
2022-09-06T15:10:37.195Z,1.55
2022-09-06T15:12:39.851Z,1.15
2022-09-06T15:14:43.241Z,2.67
2022-09-06T15:16:49.888Z,3.88
2022-09-06T15:18:56.290Z,1.95
2022-09-06T15:20:59.316Z,1.60
2022-09-06T15:23:24.326Z,1.58
2022-09-06T15:25:26.008Z,1.48
2022-09-06T15:27:29.654Z,1.20
2022-09-06T15:29:32.275Z,2.13
2022-09-06T15:31:35.281Z,1.42
2022-09-06T15:33:39.138Z,2.00
2022-09-06T15:35:43.397Z,2.58
2022-09-06T15:37:47.606Z,2.22
2022-09-06T15:39:50.276Z,2.15
2022-09-06T15:41:53.031Z,1.73
2022-09-06T15:43:58.817Z,2.55
2022-09-06T15:46:02.264Z,1.10
2022-09-06T15:48:04.920Z,5.32
2022-09-06T15:50:07.756Z,1.98
2022-09-06T15:52:10.942Z,1.50
2022-09-06T15:54:15.121Z,3.25
2022-09-06T15:56:18.991Z,3.08
2022-09-06T15:58:21.958Z,1.98
2022-09-06T16:00:24.829Z,2.15
2022-09-06T16:02:27.646Z,1.05
2022-09-06T16:04:30.408Z,1.30
2022-09-06T16:06:39.795Z,5.18
2022-09-06T16:08:43.214Z,1.10
2022-09-06T16:10:46.243Z,3.88
2022-09-06T16:12:52.042Z,4.90
2022-09-06T16:14:54.664Z,1.90
2022-09-06T16:16:57.639Z,4.32
2022-09-06T16:19:00.937Z,3.38
2022-09-06T16:21:15.153Z,2.10
2022-09-06T16:23:17.905Z,2.90
2022-09-06T16:25:20.669Z,3.63
2022-09-06T16:27:23.338Z,2.42
2022-09-06T16:29:26.450Z,2.25
2022-09-06T16:31:29.257Z,2.65
2022-09-06T16:33:33.890Z,3.63
2022-09-06T16:35:43.125Z,8.80
2022-09-06T16:37:45.780Z,2.22
2022-09-06T16:39:48.483Z,2.72
2022-09-06T16:41:51.132Z,3.33
2022-09-06T16:43:54.132Z,2.72
2022-09-06T16:46:03.049Z,3.22
2022-09-06T16:48:07.185Z,2.55
2022-09-06T16:50:10.033Z,6.65
2022-09-06T16:52:13.508Z,1.80
2022-09-06T16:54:17.135Z,3.60
2022-09-06T16:56:28.466Z,3.55
2022-09-06T16:58:31.377Z,2.90
2022-09-06T17:00:34.088Z,5.03
2022-09-06T17:02:36.795Z,5.65
2022-09-06T17:04:39.391Z,2.92
2022-09-06T17:06:44.790Z,2.53
2022-09-06T17:08:48.039Z,2.13
2022-09-06T17:10:50.702Z,3.50
2022-09-06T17:12:53.769Z,2.80
2022-09-06T17:14:56.542Z,2.25
2022-09-06T17:17:05.173Z,2.97
2022-09-06T17:19:09.201Z,2.60
2022-09-06T17:21:12.492Z,3.88
2022-09-06T17:23:19.207Z,3.50
2022-09-06T17:25:22.377Z,3.10
2022-09-06T17:27:25.051Z,2.80
2022-09-06T17:29:28.180Z,2.28
2022-09-06T17:31:31.080Z,3.17
2022-09-06T17:33:35.578Z,1.80
2022-09-06T17:35:38.184Z,1.75
2022-09-06T17:37:40.843Z,1.80
2022-09-06T17:39:43.538Z,3.97
2022-09-06T17:41:48.010Z,1.98
2022-09-06T17:43:51.829Z,4.40
2022-09-06T17:45:54.616Z,3.60
2022-09-06T17:47:57.401Z,2.70
2022-09-06T17:49:59.990Z,1.88
2022-09-06T17:52:02.880Z,2.05
2022-09-06T17:54:06.252Z,3.55
2022-09-06T17:56:14.456Z,2.05
2022-09-06T17:58:17.153Z,4.07
2022-09-06T18:00:19.894Z,2.85
2022-09-06T18:02:22.637Z,2.30
2022-09-06T18:04:25.365Z,4.05
2022-09-06T18:06:30.043Z,4.13
2022-09-06T18:08:32.734Z,4.22
2022-09-06T18:10:37.763Z,3.47
2022-09-06T18:12:42.675Z,2.10
2022-09-06T18:14:45.371Z,4.32
2022-09-06T18:16:52.375Z,2.22
2022-09-06T18:19:00.400Z,2.17
2022-09-06T18:21:04.780Z,2.03
2022-09-06T18:23:07.530Z,2.35
2022-09-06T18:25:10.332Z,2.80
2022-09-06T18:27:13.573Z,3.95
2022-09-06T18:29:18.592Z,1.70
2022-09-06T18:31:24.628Z,3.25
2022-09-06T18:33:28.019Z,3.63
2022-09-06T18:35:30.761Z,1.55
2022-09-06T18:37:36.813Z,3.53
2022-09-06T18:39:39.827Z,2.75
2022-09-06T18:42:01.074Z,1.13
2022-09-06T18:44:05.822Z,3.45
2022-09-06T18:46:13.322Z,3.03
2022-09-06T18:48:19.790Z,2.05
2022-09-06T18:50:22.526Z,2.15
2022-09-06T18:52:25.235Z,1.05
2022-09-06T18:54:28.052Z,1.10
2022-09-06T18:56:30.849Z,0.75
2022-09-06T18:58:33.757Z,4.93
2022-09-06T19:00:36.991Z,1.58
2022-09-06T19:02:39.701Z,1.63
2022-09-06T19:04:42.537Z,1.70
2022-09-06T19:06:45.362Z,1.88
2022-09-06T19:08:48.676Z,1.65
2022-09-06T19:11:03.485Z,1.23
2022-09-06T19:13:06.196Z,3.55
2022-09-06T19:15:09.379Z,1.17
2022-09-06T19:17:12.162Z,2.53
2022-09-06T19:19:14.973Z,1.77
2022-09-06T19:21:22.236Z,3.65
2022-09-06T19:23:25.584Z,1.33
2022-09-06T19:25:28.202Z,1.27
2022-09-06T19:27:30.923Z,1.55
2022-09-06T19:29:33.650Z,4.72
2022-09-06T19:31:38.277Z,3.47
2022-09-06T19:33:42.130Z,3.67
2022-09-06T19:36:01.182Z,5.65
2022-09-06T19:38:10.494Z,8.77
2022-09-06T19:40:13.340Z,5.88
2022-09-06T19:42:16.001Z,6.43
2022-09-06T19:44:20.870Z,2.80
2022-09-06T19:46:24.537Z,5.55
2022-09-06T19:48:28.822Z,5.07
2022-09-06T19:50:34.351Z,5.22
2022-09-06T19:52:37.090Z,7.97
2022-09-06T19:54:39.896Z,7.38
2022-09-06T19:56:43.853Z,4.32
2022-09-06T19:58:46.968Z,5.60
2022-09-06T20:00:58.582Z,5.05
2022-09-06T20:03:01.222Z,5.47
2022-09-06T20:05:04.012Z,3.83
2022-09-06T20:07:07.168Z,6.30
2022-09-06T20:09:11.016Z,3.35
2022-09-06T20:11:13.792Z,5.18
2022-09-06T20:13:16.440Z,4.28
2022-09-06T20:15:19.654Z,5.05
2022-09-06T20:17:33.771Z,3.17
2022-09-06T20:19:36.842Z,3.40
2022-09-06T20:21:39.622Z,3.38
2022-09-06T20:23:42.414Z,2.83
2022-09-06T20:25:45.288Z,2.08
2022-09-06T20:27:48.042Z,2.00
2022-09-06T20:29:50.783Z,1.30
2022-09-06T20:31:53.449Z,2.83
2022-09-06T20:33:58.264Z,4.10
2022-09-06T20:36:03.369Z,1.90
2022-09-06T20:38:06.219Z,1.27
2022-09-06T20:40:09.633Z,3.50
2022-09-06T20:42:13.673Z,1.95
2022-09-06T20:44:16.326Z,1.23
2022-09-06T20:46:21.233Z,1.33
2022-09-06T20:48:26.294Z,1.27
2022-09-06T20:50:29.042Z,2.92
2022-09-06T20:52:34.257Z,2.53
2022-09-06T20:54:37.297Z,1.92
2022-09-06T20:56:42.056Z,1.67
2022-09-06T20:58:49.811Z,2.25
2022-09-06T21:00:52.898Z,1.00
2022-09-06T21:02:55.702Z,1.08
2022-09-06T21:05:00.207Z,4.78
2022-09-06T21:07:03.632Z,1.58
2022-09-06T21:09:10.553Z,1.73
2022-09-06T21:11:13.521Z,1.65
2022-09-06T21:13:16.402Z,1.25
2022-09-06T21:15:19.028Z,0.70
2022-09-06T21:17:21.648Z,2.03
2022-09-06T21:19:25.559Z,1.20
2022-09-06T21:21:29.908Z,2.72
2022-09-06T21:23:35.147Z,1.35
2022-09-06T21:25:37.936Z,1.42
2022-09-06T21:27:40.701Z,1.55
2022-09-06T21:29:43.479Z,3.20
2022-09-06T21:31:46.213Z,2.58
2022-09-06T21:33:54.011Z,4.18
2022-09-06T21:36:07.912Z,2.90
2022-09-06T21:38:10.688Z,4.88
2022-09-06T21:40:13.457Z,2.58
2022-09-06T21:42:18.647Z,1.80
2022-09-06T21:44:21.626Z,3.55
2022-09-06T21:46:31.712Z,3.13
2022-09-06T21:48:49.081Z,1.65
2022-09-06T21:50:51.985Z,4.05
2022-09-06T21:52:55.213Z,1.75
2022-09-06T21:54:57.947Z,1.85
2022-09-06T21:57:00.548Z,2.53
2022-09-06T21:59:04.068Z,3.10
2022-09-06T22:01:07.134Z,1.80
2022-09-06T22:03:10.250Z,2.35
2022-09-06T22:05:12.855Z,1.88
2022-09-06T22:07:15.544Z,4.03
2022-09-06T22:09:18.306Z,0.95
2022-09-06T22:11:32.381Z,2.20
2022-09-06T22:13:35.352Z,2.72
2022-09-06T22:15:38.849Z,1.67
2022-09-06T22:17:41.617Z,1.48
2022-09-06T22:19:44.323Z,1.98
2022-09-06T22:21:47.093Z,1.70
2022-09-06T22:23:54.094Z,4.55
2022-09-06T22:26:09.103Z,1.50
2022-09-06T22:28:11.801Z,0.82
2022-09-06T22:30:14.742Z,2.55
2022-09-06T22:32:17.993Z,3.65
2022-09-06T22:34:20.699Z,3.65
2022-09-06T22:36:24.365Z,3.85
2022-09-06T22:38:31.251Z,3.20
2022-09-06T22:40:34.058Z,3.88
2022-09-06T22:42:36.702Z,2.83
2022-09-06T22:44:39.399Z,3.20
2022-09-06T22:46:42.147Z,3.20
2022-09-06T22:48:45.000Z,3.72
2022-09-06T22:50:47.788Z,3.42
2022-09-06T22:52:50.499Z,1.38
2022-09-06T22:54:53.205Z,2.45
2022-09-06T22:56:55.975Z,2.72
2022-09-06T22:58:59.513Z,2.90
2022-09-06T23:01:13.647Z,9.15
2022-09-06T23:03:16.547Z,2.65
2022-09-06T23:05:19.628Z,3.35
2022-09-06T23:07:22.334Z,1.40
2022-09-06T23:09:25.079Z,1.75
2022-09-06T23:11:28.120Z,4.05
2022-09-06T23:13:31.199Z,1.23
2022-09-06T23:15:38.495Z,1.63
2022-09-06T23:17:41.185Z,1.38
2022-09-06T23:19:43.882Z,4.45
2022-09-06T23:21:46.714Z,2.38
2022-09-06T23:23:51.537Z,1.08
2022-09-06T23:25:54.418Z,1.30
2022-09-06T23:27:59.796Z,1.05
2022-09-06T23:30:03.796Z,1.10
2022-09-06T23:32:07.245Z,0.85
2022-09-06T23:34:09.857Z,0.63
2022-09-06T23:36:14.932Z,0.90
2022-09-06T23:38:17.668Z,0.68
2022-09-06T23:40:20.760Z,0.93
2022-09-06T23:42:23.545Z,1.00
2022-09-06T23:44:26.238Z,0.63
2022-09-06T23:46:29.762Z,0.25
2022-09-06T23:48:32.826Z,0.90
2022-09-06T23:50:35.480Z,1.15
2022-09-06T23:52:38.168Z,1.38
2022-09-06T23:54:40.832Z,0.70
2022-09-06T23:56:43.833Z,1.02
2022-09-06T23:58:46.507Z,0.43
